sensor_id;sensor_type;location;lat;lon;timestamp;P1;durP1;ratioP1;P2;durP2;ratioP2
7338;SDS011;33747;49.524;8.390;2023-07-20T00:02:14;6.38;;;2.20;;
7338;SDS011;33747;49.524;8.390;2023-07-20T00:04:39;2.35;;;1.77;;
7338;SDS011;33747;49.524;8.390;2023-07-20T00:07:05;3.67;;;1.60;;
7338;SDS011;33747;49.524;8.390;2023-07-20T00:09:30;2.97;;;1.60;;
7338;SDS011;33747;49.524;8.390;2023-07-20T00:11:55;6.03;;;2.10;;
7338;SDS011;33747;49.524;8.390;2023-07-20T00:14:21;3.42;;;1.50;;
7338;SDS011;33747;49.524;8.390;2023-07-20T00:16:47;3.25;;;1.67;;
7338;SDS011;33747;49.524;8.390;2023-07-20T00:19:14;6.43;;;2.08;;
7338;SDS011;33747;49.524;8.390;2023-07-20T00:21:41;5.07;;;1.80;;
7338;SDS011;33747;49.524;8.390;2023-07-20T00:24:07;4.65;;;2.13;;
7338;SDS011;33747;49.524;8.390;2023-07-20T00:26:33;3.05;;;1.73;;
7338;SDS011;33747;49.524;8.390;2023-07-20T00:28:58;2.58;;;1.80;;
7338;SDS011;33747;49.524;8.390;2023-07-20T00:31:23;3.38;;;2.10;;
7338;SDS011;33747;49.524;8.390;2023-07-20T00:33:49;2.67;;;1.50;;
7338;SDS011;33747;49.524;8.390;2023-07-20T00:36:14;3.88;;;2.20;;
7338;SDS011;33747;49.524;8.390;2023-07-20T00:38:40;4.00;;;2.10;;
7338;SDS011;33747;49.524;8.390;2023-07-20T00:41:05;5.00;;;2.25;;
7338;SDS011;33747;49.524;8.390;2023-07-20T00:43:31;4.50;;;1.90;;
7338;SDS011;33747;49.524;8.390;2023-07-20T00:45:56;6.78;;;2.20;;
7338;SDS011;33747;49.524;8.390;2023-07-20T00:48:22;5.10;;;2.13;;
7338;SDS011;33747;49.524;8.390;2023-07-20T00:50:47;4.80;;;1.77;;
7338;SDS011;33747;49.524;8.390;2023-07-20T00:53:13;6.32;;;1.95;;
7338;SDS011;33747;49.524;8.390;2023-07-20T00:55:39;6.43;;;2.30;;
7338;SDS011;33747;49.524;8.390;2023-07-20T00:58:04;2.85;;;2.00;;
7338;SDS011;33747;49.524;8.390;2023-07-20T01:00:30;1.92;;;1.48;;
7338;SDS011;33747;49.524;8.390;2023-07-20T01:02:55;5.13;;;1.60;;
7338;SDS011;33747;49.524;8.390;2023-07-20T01:05:21;3.53;;;1.88;;
7338;SDS011;33747;49.524;8.390;2023-07-20T01:07:53;2.38;;;1.58;;
7338;SDS011;33747;49.524;8.390;2023-07-20T01:10:25;3.60;;;1.65;;
7338;SDS011;33747;49.524;8.390;2023-07-20T01:13:05;3.50;;;1.88;;
7338;SDS011;33747;49.524;8.390;2023-07-20T01:15:33;2.65;;;1.60;;
7338;SDS011;33747;49.524;8.390;2023-07-20T01:17:59;4.05;;;1.80;;
7338;SDS011;33747;49.524;8.390;2023-07-20T01:20:27;3.75;;;2.00;;
7338;SDS011;33747;49.524;8.390;2023-07-20T01:28:47;4.53;;;1.92;;
7338;SDS011;33747;49.524;8.390;2023-07-20T01:31:31;2.05;;;1.70;;
7338;SDS011;33747;49.524;8.390;2023-07-20T01:33:58;3.45;;;1.88;;
7338;SDS011;33747;49.524;8.390;2023-07-20T01:36:26;4.65;;;2.17;;
7338;SDS011;33747;49.524;8.390;2023-07-20T01:38:52;7.90;;;1.88;;
7338;SDS011;33747;49.524;8.390;2023-07-20T01:41:17;5.90;;;1.95;;
7338;SDS011;33747;49.524;8.390;2023-07-20T01:43:43;4.97;;;1.75;;
7338;SDS011;33747;49.524;8.390;2023-07-20T01:46:09;3.78;;;2.05;;
7338;SDS011;33747;49.524;8.390;2023-07-20T01:48:34;2.55;;;1.70;;
7338;SDS011;33747;49.524;8.390;2023-07-20T01:50:59;4.07;;;1.55;;
7338;SDS011;33747;49.524;8.390;2023-07-20T01:53:25;4.32;;;2.00;;
7338;SDS011;33747;49.524;8.390;2023-07-20T01:55:52;4.72;;;2.00;;
7338;SDS011;33747;49.524;8.390;2023-07-20T01:58:19;2.15;;;1.70;;
7338;SDS011;33747;49.524;8.390;2023-07-20T02:00:44;2.95;;;1.65;;
7338;SDS011;33747;49.524;8.390;2023-07-20T02:03:09;4.53;;;2.10;;
7338;SDS011;33747;49.524;8.390;2023-07-20T02:05:36;2.90;;;1.77;;
7338;SDS011;33747;49.524;8.390;2023-07-20T02:08:02;3.35;;;1.60;;
7338;SDS011;33747;49.524;8.390;2023-07-20T02:10:27;4.07;;;1.63;;
7338;SDS011;33747;49.524;8.390;2023-07-20T02:12:53;5.03;;;1.98;;
7338;SDS011;33747;49.524;8.390;2023-07-20T02:15:18;2.42;;;2.00;;
7338;SDS011;33747;49.524;8.390;2023-07-20T02:17:44;5.78;;;1.85;;
7338;SDS011;33747;49.524;8.390;2023-07-20T02:20:09;5.38;;;1.85;;
7338;SDS011;33747;49.524;8.390;2023-07-20T02:22:36;2.47;;;1.65;;
7338;SDS011;33747;49.524;8.390;2023-07-20T02:25:03;5.75;;;1.73;;
7338;SDS011;33747;49.524;8.390;2023-07-20T02:27:29;5.38;;;1.90;;
7338;SDS011;33747;49.524;8.390;2023-07-20T02:29:55;3.17;;;1.98;;
7338;SDS011;33747;49.524;8.390;2023-07-20T02:32:20;4.28;;;1.85;;
7338;SDS011;33747;49.524;8.390;2023-07-20T02:34:46;3.78;;;2.10;;
7338;SDS011;33747;49.524;8.390;2023-07-20T02:37:11;2.97;;;1.73;;
7338;SDS011;33747;49.524;8.390;2023-07-20T02:39:37;2.78;;;1.90;;
7338;SDS011;33747;49.524;8.390;2023-07-20T02:42:03;3.38;;;1.67;;
7338;SDS011;33747;49.524;8.390;2023-07-20T02:44:28;3.15;;;2.00;;
7338;SDS011;33747;49.524;8.390;2023-07-20T02:46:55;6.50;;;1.80;;
7338;SDS011;33747;49.524;8.390;2023-07-20T02:49:20;3.20;;;2.10;;
7338;SDS011;33747;49.524;8.390;2023-07-20T02:51:46;10.00;;;1.95;;
7338;SDS011;33747;49.524;8.390;2023-07-20T02:54:14;3.60;;;1.98;;
7338;SDS011;33747;49.524;8.390;2023-07-20T02:56:40;3.53;;;2.03;;
7338;SDS011;33747;49.524;8.390;2023-07-20T02:59:05;8.57;;;2.42;;
7338;SDS011;33747;49.524;8.390;2023-07-20T03:01:31;2.40;;;1.73;;
7338;SDS011;33747;49.524;8.390;2023-07-20T03:03:56;5.10;;;2.03;;
7338;SDS011;33747;49.524;8.390;2023-07-20T03:06:21;4.18;;;2.30;;
7338;SDS011;33747;49.524;8.390;2023-07-20T03:08:47;5.00;;;2.40;;
7338;SDS011;33747;49.524;8.390;2023-07-20T03:11:16;4.75;;;2.00;;
7338;SDS011;33747;49.524;8.390;2023-07-20T03:13:42;5.47;;;2.45;;
7338;SDS011;33747;49.524;8.390;2023-07-20T03:16:08;4.55;;;2.10;;
7338;SDS011;33747;49.524;8.390;2023-07-20T03:18:36;4.35;;;2.25;;
7338;SDS011;33747;49.524;8.390;2023-07-20T03:21:02;8.35;;;2.10;;
7338;SDS011;33747;49.524;8.390;2023-07-20T03:23:27;5.03;;;2.20;;
7338;SDS011;33747;49.524;8.390;2023-07-20T03:25:53;7.72;;;2.00;;
7338;SDS011;33747;49.524;8.390;2023-07-20T03:28:20;4.13;;;2.05;;
7338;SDS011;33747;49.524;8.390;2023-07-20T03:30:45;4.20;;;2.00;;
7338;SDS011;33747;49.524;8.390;2023-07-20T03:33:11;5.68;;;2.30;;
7338;SDS011;33747;49.524;8.390;2023-07-20T03:35:36;6.15;;;2.25;;
7338;SDS011;33747;49.524;8.390;2023-07-20T03:38:02;3.33;;;1.95;;
7338;SDS011;33747;49.524;8.390;2023-07-20T03:40:27;5.20;;;2.45;;
7338;SDS011;33747;49.524;8.390;2023-07-20T03:42:53;7.80;;;2.72;;
7338;SDS011;33747;49.524;8.390;2023-07-20T03:45:18;6.43;;;2.45;;
7338;SDS011;33747;49.524;8.390;2023-07-20T03:47:43;4.22;;;1.90;;
7338;SDS011;33747;49.524;8.390;2023-07-20T03:50:09;3.55;;;2.17;;
7338;SDS011;33747;49.524;8.390;2023-07-20T03:52:35;6.22;;;2.30;;
7338;SDS011;33747;49.524;8.390;2023-07-20T03:55:01;4.32;;;2.42;;
7338;SDS011;33747;49.524;8.390;2023-07-20T03:57:26;6.25;;;2.28;;
7338;SDS011;33747;49.524;8.390;2023-07-20T03:59:51;7.30;;;2.75;;
7338;SDS011;33747;49.524;8.390;2023-07-20T04:02:17;7.70;;;2.35;;
7338;SDS011;33747;49.524;8.390;2023-07-20T04:04:42;4.80;;;2.28;;
7338;SDS011;33747;49.524;8.390;2023-07-20T04:07:08;4.57;;;2.53;;
7338;SDS011;33747;49.524;8.390;2023-07-20T04:09:33;7.20;;;2.00;;
7338;SDS011;33747;49.524;8.390;2023-07-20T04:11:59;3.15;;;2.15;;
7338;SDS011;33747;49.524;8.390;2023-07-20T04:14:25;6.70;;;2.20;;
7338;SDS011;33747;49.524;8.390;2023-07-20T04:16:50;3.13;;;1.83;;
7338;SDS011;33747;49.524;8.390;2023-07-20T04:19:16;2.40;;;1.60;;
7338;SDS011;33747;49.524;8.390;2023-07-20T04:21:42;4.22;;;2.13;;
7338;SDS011;33747;49.524;8.390;2023-07-20T04:24:08;8.13;;;1.88;;
7338;SDS011;33747;49.524;8.390;2023-07-20T04:26:33;5.05;;;1.92;;
7338;SDS011;33747;49.524;8.390;2023-07-20T04:28:59;4.18;;;1.90;;
7338;SDS011;33747;49.524;8.390;2023-07-20T04:31:24;5.40;;;2.05;;
7338;SDS011;33747;49.524;8.390;2023-07-20T04:33:50;8.65;;;2.30;;
7338;SDS011;33747;49.524;8.390;2023-07-20T04:36:15;3.33;;;1.80;;
7338;SDS011;33747;49.524;8.390;2023-07-20T04:38:44;8.23;;;1.92;;
7338;SDS011;33747;49.524;8.390;2023-07-20T04:41:12;3.83;;;1.90;;
7338;SDS011;33747;49.524;8.390;2023-07-20T04:43:40;4.57;;;2.35;;
7338;SDS011;33747;49.524;8.390;2023-07-20T04:46:06;4.40;;;2.17;;
7338;SDS011;33747;49.524;8.390;2023-07-20T04:48:32;6.25;;;2.10;;
7338;SDS011;33747;49.524;8.390;2023-07-20T04:50:57;7.65;;;2.08;;
7338;SDS011;33747;49.524;8.390;2023-07-20T04:53:23;3.25;;;1.95;;
7338;SDS011;33747;49.524;8.390;2023-07-20T04:55:49;5.68;;;2.00;;
7338;SDS011;33747;49.524;8.390;2023-07-20T04:58:19;4.07;;;1.88;;
7338;SDS011;33747;49.524;8.390;2023-07-20T05:00:45;3.63;;;2.13;;
7338;SDS011;33747;49.524;8.390;2023-07-20T05:03:10;3.20;;;2.08;;
7338;SDS011;33747;49.524;8.390;2023-07-20T05:05:36;7.05;;;2.28;;
7338;SDS011;33747;49.524;8.390;2023-07-20T05:08:02;7.03;;;1.90;;
7338;SDS011;33747;49.524;8.390;2023-07-20T05:10:29;5.90;;;2.42;;
7338;SDS011;33747;49.524;8.390;2023-07-20T05:12:54;4.88;;;2.55;;
7338;SDS011;33747;49.524;8.390;2023-07-20T05:15:19;4.38;;;1.92;;
7338;SDS011;33747;49.524;8.390;2023-07-20T05:17:45;8.75;;;1.95;;
7338;SDS011;33747;49.524;8.390;2023-07-20T05:20:10;11.93;;;2.20;;
7338;SDS011;33747;49.524;8.390;2023-07-20T05:22:37;5.32;;;1.90;;
7338;SDS011;33747;49.524;8.390;2023-07-20T05:25:05;2.92;;;2.00;;
7338;SDS011;33747;49.524;8.390;2023-07-20T05:27:35;3.95;;;1.80;;
7338;SDS011;33747;49.524;8.390;2023-07-20T05:30:01;5.25;;;2.92;;
7338;SDS011;33747;49.524;8.390;2023-07-20T05:32:26;6.70;;;1.95;;
7338;SDS011;33747;49.524;8.390;2023-07-20T05:34:52;4.07;;;2.22;;
7338;SDS011;33747;49.524;8.390;2023-07-20T05:37:19;6.18;;;2.05;;
7338;SDS011;33747;49.524;8.390;2023-07-20T05:39:44;5.07;;;2.00;;
7338;SDS011;33747;49.524;8.390;2023-07-20T05:42:09;4.57;;;1.92;;
7338;SDS011;33747;49.524;8.390;2023-07-20T05:44:35;6.35;;;2.03;;
7338;SDS011;33747;49.524;8.390;2023-07-20T05:47:00;9.23;;;1.90;;
7338;SDS011;33747;49.524;8.390;2023-07-20T05:49:27;5.47;;;1.90;;
7338;SDS011;33747;49.524;8.390;2023-07-20T05:51:53;6.20;;;1.98;;
7338;SDS011;33747;49.524;8.390;2023-07-20T05:54:19;4.57;;;1.83;;
7338;SDS011;33747;49.524;8.390;2023-07-20T05:56:45;6.45;;;1.92;;
7338;SDS011;33747;49.524;8.390;2023-07-20T05:59:10;6.07;;;2.20;;
7338;SDS011;33747;49.524;8.390;2023-07-20T06:01:36;5.05;;;1.88;;
7338;SDS011;33747;49.524;8.390;2023-07-20T06:04:01;11.80;;;2.45;;
7338;SDS011;33747;49.524;8.390;2023-07-20T06:06:28;5.35;;;1.92;;
7338;SDS011;33747;49.524;8.390;2023-07-20T06:08:53;2.60;;;1.92;;
7338;SDS011;33747;49.524;8.390;2023-07-20T06:11:19;4.00;;;1.45;;
7338;SDS011;33747;49.524;8.390;2023-07-20T06:13:45;4.45;;;1.88;;
7338;SDS011;33747;49.524;8.390;2023-07-20T06:16:10;7.32;;;2.30;;
7338;SDS011;33747;49.524;8.390;2023-07-20T06:18:35;7.28;;;1.92;;
7338;SDS011;33747;49.524;8.390;2023-07-20T06:21:01;2.70;;;1.45;;
7338;SDS011;33747;49.524;8.390;2023-07-20T06:23:26;10.95;;;1.98;;
7338;SDS011;33747;49.524;8.390;2023-07-20T06:25:52;12.07;;;1.88;;
7338;SDS011;33747;49.524;8.390;2023-07-20T06:28:17;7.20;;;1.55;;
7338;SDS011;33747;49.524;8.390;2023-07-20T06:30:43;2.70;;;1.73;;
7338;SDS011;33747;49.524;8.390;2023-07-20T06:33:08;6.38;;;1.48;;
7338;SDS011;33747;49.524;8.390;2023-07-20T06:35:34;4.13;;;1.63;;
7338;SDS011;33747;49.524;8.390;2023-07-20T06:38:00;8.48;;;1.55;;
7338;SDS011;33747;49.524;8.390;2023-07-20T06:40:26;3.53;;;1.50;;
7338;SDS011;33747;49.524;8.390;2023-07-20T06:42:51;2.67;;;1.40;;
7338;SDS011;33747;49.524;8.390;2023-07-20T06:45:17;5.25;;;1.52;;
7338;SDS011;33747;49.524;8.390;2023-07-20T06:47:42;3.15;;;1.20;;
7338;SDS011;33747;49.524;8.390;2023-07-20T06:50:07;2.38;;;1.33;;
7338;SDS011;33747;49.524;8.390;2023-07-20T06:52:33;3.47;;;1.58;;
7338;SDS011;33747;49.524;8.390;2023-07-20T06:54:59;3.83;;;1.45;;
7338;SDS011;33747;49.524;8.390;2023-07-20T06:57:25;3.78;;;1.20;;
7338;SDS011;33747;49.524;8.390;2023-07-20T06:59:50;2.33;;;1.52;;
7338;SDS011;33747;49.524;8.390;2023-07-20T07:02:15;1.90;;;1.55;;
7338;SDS011;33747;49.524;8.390;2023-07-20T07:04:41;2.40;;;1.23;;
7338;SDS011;33747;49.524;8.390;2023-07-20T07:07:07;3.35;;;1.50;;
7338;SDS011;33747;49.524;8.390;2023-07-20T07:09:32;3.95;;;1.48;;
7338;SDS011;33747;49.524;8.390;2023-07-20T07:11:57;5.03;;;1.20;;
7338;SDS011;33747;49.524;8.390;2023-07-20T07:14:23;5.22;;;1.73;;
7338;SDS011;33747;49.524;8.390;2023-07-20T07:16:48;3.80;;;1.40;;
7338;SDS011;33747;49.524;8.390;2023-07-20T07:19:14;2.03;;;1.13;;
7338;SDS011;33747;49.524;8.390;2023-07-20T07:21:39;5.22;;;1.80;;
7338;SDS011;33747;49.524;8.390;2023-07-20T07:24:05;4.45;;;1.60;;
7338;SDS011;33747;49.524;8.390;2023-07-20T07:26:32;3.88;;;1.30;;
7338;SDS011;33747;49.524;8.390;2023-07-20T07:28:57;5.03;;;1.50;;
7338;SDS011;33747;49.524;8.390;2023-07-20T07:31:24;4.20;;;1.30;;
7338;SDS011;33747;49.524;8.390;2023-07-20T07:33:50;8.23;;;1.50;;
7338;SDS011;33747;49.524;8.390;2023-07-20T07:36:15;2.78;;;1.20;;
7338;SDS011;33747;49.524;8.390;2023-07-20T07:38:40;5.50;;;1.98;;
7338;SDS011;33747;49.524;8.390;2023-07-20T07:41:06;5.32;;;1.70;;
7338;SDS011;33747;49.524;8.390;2023-07-20T07:43:31;8.20;;;1.80;;
7338;SDS011;33747;49.524;8.390;2023-07-20T07:45:58;2.20;;;1.30;;
7338;SDS011;33747;49.524;8.390;2023-07-20T07:48:23;2.95;;;1.48;;
7338;SDS011;33747;49.524;8.390;2023-07-20T07:50:50;3.22;;;1.67;;
7338;SDS011;33747;49.524;8.390;2023-07-20T07:53:15;7.25;;;1.60;;
7338;SDS011;33747;49.524;8.390;2023-07-20T07:55:41;6.50;;;1.25;;
7338;SDS011;33747;49.524;8.390;2023-07-20T07:58:06;4.43;;;1.38;;
7338;SDS011;33747;49.524;8.390;2023-07-20T08:00:32;2.78;;;1.40;;
7338;SDS011;33747;49.524;8.390;2023-07-20T08:02:57;6.93;;;1.88;;
7338;SDS011;33747;49.524;8.390;2023-07-20T08:05:23;4.43;;;1.73;;
7338;SDS011;33747;49.524;8.390;2023-07-20T08:07:48;5.53;;;1.70;;
7338;SDS011;33747;49.524;8.390;2023-07-20T08:10:13;3.20;;;1.67;;
7338;SDS011;33747;49.524;8.390;2023-07-20T08:12:39;4.95;;;1.60;;
7338;SDS011;33747;49.524;8.390;2023-07-20T08:15:04;2.75;;;1.40;;
7338;SDS011;33747;49.524;8.390;2023-07-20T08:17:30;5.00;;;1.48;;
7338;SDS011;33747;49.524;8.390;2023-07-20T08:19:55;4.10;;;1.67;;
7338;SDS011;33747;49.524;8.390;2023-07-20T08:22:21;3.55;;;1.67;;
7338;SDS011;33747;49.524;8.390;2023-07-20T08:24:46;2.67;;;1.42;;
7338;SDS011;33747;49.524;8.390;2023-07-20T08:27:11;4.47;;;1.38;;
7338;SDS011;33747;49.524;8.390;2023-07-20T08:29:37;7.10;;;1.52;;
7338;SDS011;33747;49.524;8.390;2023-07-20T08:32:03;3.30;;;1.35;;
7338;SDS011;33747;49.524;8.390;2023-07-20T08:34:29;2.45;;;1.40;;
7338;SDS011;33747;49.524;8.390;2023-07-20T08:36:55;5.95;;;1.40;;
7338;SDS011;33747;49.524;8.390;2023-07-20T08:39:21;2.58;;;1.70;;
7338;SDS011;33747;49.524;8.390;2023-07-20T08:41:47;3.78;;;1.80;;
7338;SDS011;33747;49.524;8.390;2023-07-20T08:44:13;4.45;;;1.60;;
7338;SDS011;33747;49.524;8.390;2023-07-20T08:46:39;3.85;;;2.00;;
7338;SDS011;33747;49.524;8.390;2023-07-20T08:49:05;4.50;;;1.60;;
7338;SDS011;33747;49.524;8.390;2023-07-20T08:51:31;3.25;;;1.48;;
7338;SDS011;33747;49.524;8.390;2023-07-20T08:53:58;3.22;;;1.35;;
7338;SDS011;33747;49.524;8.390;2023-07-20T08:56:23;1.48;;;1.30;;
7338;SDS011;33747;49.524;8.390;2023-07-20T08:58:50;2.83;;;1.42;;
7338;SDS011;33747;49.524;8.390;2023-07-20T09:01:17;6.30;;;1.35;;
7338;SDS011;33747;49.524;8.390;2023-07-20T09:03:43;1.52;;;1.15;;
7338;SDS011;33747;49.524;8.390;2023-07-20T09:06:10;6.78;;;1.52;;
7338;SDS011;33747;49.524;8.390;2023-07-20T09:08:37;5.20;;;1.48;;
7338;SDS011;33747;49.524;8.390;2023-07-20T09:11:05;5.68;;;1.60;;
7338;SDS011;33747;49.524;8.390;2023-07-20T09:13:34;3.72;;;1.42;;
7338;SDS011;33747;49.524;8.390;2023-07-20T09:16:00;6.03;;;1.50;;
7338;SDS011;33747;49.524;8.390;2023-07-20T09:18:28;5.88;;;1.48;;
7338;SDS011;33747;49.524;8.390;2023-07-20T09:21:04;3.10;;;1.58;;
7338;SDS011;33747;49.524;8.390;2023-07-20T09:23:34;3.40;;;1.92;;
7338;SDS011;33747;49.524;8.390;2023-07-20T09:26:01;2.78;;;1.70;;
7338;SDS011;33747;49.524;8.390;2023-07-20T09:28:41;3.03;;;1.20;;
7338;SDS011;33747;49.524;8.390;2023-07-20T09:31:14;1.10;;;1.00;;
7338;SDS011;33747;49.524;8.390;2023-07-20T09:33:41;3.47;;;1.30;;
7338;SDS011;33747;49.524;8.390;2023-07-20T09:36:07;3.05;;;1.20;;
7338;SDS011;33747;49.524;8.390;2023-07-20T09:38:36;4.70;;;1.55;;
7338;SDS011;33747;49.524;8.390;2023-07-20T09:41:01;2.53;;;1.33;;
7338;SDS011;33747;49.524;8.390;2023-07-20T09:43:30;3.92;;;1.42;;
7338;SDS011;33747;49.524;8.390;2023-07-20T09:45:57;4.60;;;1.30;;
7338;SDS011;33747;49.524;8.390;2023-07-20T09:48:23;4.72;;;1.55;;
7338;SDS011;33747;49.524;8.390;2023-07-20T09:50:49;1.75;;;1.13;;
7338;SDS011;33747;49.524;8.390;2023-07-20T09:53:16;5.25;;;1.30;;
7338;SDS011;33747;49.524;8.390;2023-07-20T09:55:43;2.13;;;1.10;;
7338;SDS011;33747;49.524;8.390;2023-07-20T09:58:10;1.85;;;1.02;;
7338;SDS011;33747;49.524;8.390;2023-07-20T10:00:39;8.02;;;1.55;;
7338;SDS011;33747;49.524;8.390;2023-07-20T10:03:05;4.38;;;1.33;;
7338;SDS011;33747;49.524;8.390;2023-07-20T10:05:35;3.67;;;1.40;;
7338;SDS011;33747;49.524;8.390;2023-07-20T10:08:02;3.63;;;1.73;;
7338;SDS011;33747;49.524;8.390;2023-07-20T10:10:29;2.70;;;1.17;;
7338;SDS011;33747;49.524;8.390;2023-07-20T10:12:55;2.10;;;1.15;;
7338;SDS011;33747;49.524;8.390;2023-07-20T10:15:29;2.20;;;1.48;;
7338;SDS011;33747;49.524;8.390;2023-07-20T10:18:06;1.77;;;1.20;;
7338;SDS011;33747;49.524;8.390;2023-07-20T10:20:36;2.22;;;1.33;;
7338;SDS011;33747;49.524;8.390;2023-07-20T10:23:01;1.40;;;1.17;;
7338;SDS011;33747;49.524;8.390;2023-07-20T10:25:27;2.17;;;1.13;;
7338;SDS011;33747;49.524;8.390;2023-07-20T10:27:53;5.28;;;1.50;;
7338;SDS011;33747;49.524;8.390;2023-07-20T10:30:19;3.30;;;1.08;;
7338;SDS011;33747;49.524;8.390;2023-07-20T10:32:45;2.80;;;1.48;;
7338;SDS011;33747;49.524;8.390;2023-07-20T10:35:17;2.85;;;1.13;;
7338;SDS011;33747;49.524;8.390;2023-07-20T10:37:47;2.55;;;1.13;;
7338;SDS011;33747;49.524;8.390;2023-07-20T10:40:28;5.13;;;1.50;;
7338;SDS011;33747;49.524;8.390;2023-07-20T10:43:05;10.52;;;1.10;;
7338;SDS011;33747;49.524;8.390;2023-07-20T10:50:44;5.18;;;1.30;;
7338;SDS011;33747;49.524;8.390;2023-07-20T10:53:11;2.30;;;1.23;;
7338;SDS011;33747;49.524;8.390;2023-07-20T10:55:40;3.53;;;1.30;;
7338;SDS011;33747;49.524;8.390;2023-07-20T10:58:15;2.80;;;0.93;;
7338;SDS011;33747;49.524;8.390;2023-07-20T11:00:57;1.50;;;1.15;;
7338;SDS011;33747;49.524;8.390;2023-07-20T11:03:31;2.57;;;1.00;;
7338;SDS011;33747;49.524;8.390;2023-07-20T11:11:51;3.63;;;1.40;;
7338;SDS011;33747;49.524;8.390;2023-07-20T11:14:34;1.45;;;1.00;;
7338;SDS011;33747;49.524;8.390;2023-07-20T11:17:12;0.93;;;0.90;;
7338;SDS011;33747;49.524;8.390;2023-07-20T11:19:38;1.88;;;1.27;;
7338;SDS011;33747;49.524;8.390;2023-07-20T11:22:04;3.25;;;1.08;;
7338;SDS011;33747;49.524;8.390;2023-07-20T11:24:32;5.57;;;1.60;;
7338;SDS011;33747;49.524;8.390;2023-07-20T11:26:58;1.45;;;1.05;;
7338;SDS011;33747;49.524;8.390;2023-07-20T11:29:23;2.75;;;1.27;;
7338;SDS011;33747;49.524;8.390;2023-07-20T11:31:50;2.25;;;1.30;;
7338;SDS011;33747;49.524;8.390;2023-07-20T11:34:17;2.03;;;1.02;;
7338;SDS011;33747;49.524;8.390;2023-07-20T11:36:43;2.60;;;1.27;;
7338;SDS011;33747;49.524;8.390;2023-07-20T11:39:10;2.10;;;1.20;;
7338;SDS011;33747;49.524;8.390;2023-07-20T11:41:36;2.45;;;1.00;;
7338;SDS011;33747;49.524;8.390;2023-07-20T11:44:03;3.67;;;1.10;;
7338;SDS011;33747;49.524;8.390;2023-07-20T11:46:28;2.22;;;1.23;;
7338;SDS011;33747;49.524;8.390;2023-07-20T11:49:00;2.25;;;1.00;;
7338;SDS011;33747;49.524;8.390;2023-07-20T11:51:29;2.25;;;1.08;;
7338;SDS011;33747;49.524;8.390;2023-07-20T11:53:55;3.72;;;1.30;;
7338;SDS011;33747;49.524;8.390;2023-07-20T11:56:21;1.48;;;0.90;;
7338;SDS011;33747;49.524;8.390;2023-07-20T11:58:47;2.53;;;1.10;;
7338;SDS011;33747;49.524;8.390;2023-07-20T12:01:13;1.67;;;1.30;;
7338;SDS011;33747;49.524;8.390;2023-07-20T12:03:38;2.05;;;1.02;;
7338;SDS011;33747;49.524;8.390;2023-07-20T12:06:07;1.13;;;0.80;;
7338;SDS011;33747;49.524;8.390;2023-07-20T12:08:33;5.72;;;1.30;;
7338;SDS011;33747;49.524;8.390;2023-07-20T12:10:58;1.40;;;0.98;;
7338;SDS011;33747;49.524;8.390;2023-07-20T12:13:24;2.08;;;0.98;;
7338;SDS011;33747;49.524;8.390;2023-07-20T12:15:52;3.15;;;1.20;;
7338;SDS011;33747;49.524;8.390;2023-07-20T12:18:22;2.83;;;1.02;;
7338;SDS011;33747;49.524;8.390;2023-07-20T12:20:47;1.30;;;0.90;;
7338;SDS011;33747;49.524;8.390;2023-07-20T12:23:13;2.58;;;1.27;;
7338;SDS011;33747;49.524;8.390;2023-07-20T12:25:39;2.92;;;1.30;;
7338;SDS011;33747;49.524;8.390;2023-07-20T12:28:10;4.05;;;1.58;;
7338;SDS011;33747;49.524;8.390;2023-07-20T12:30:40;10.40;;;1.52;;
7338;SDS011;33747;49.524;8.390;2023-07-20T12:33:06;3.05;;;1.40;;
7338;SDS011;33747;49.524;8.390;2023-07-20T12:35:32;3.83;;;1.30;;
7338;SDS011;33747;49.524;8.390;2023-07-20T12:37:58;2.92;;;1.23;;
7338;SDS011;33747;49.524;8.390;2023-07-20T12:40:24;1.65;;;0.93;;
7338;SDS011;33747;49.524;8.390;2023-07-20T12:42:49;1.15;;;1.05;;
7338;SDS011;33747;49.524;8.390;2023-07-20T12:45:15;5.95;;;1.23;;
7338;SDS011;33747;49.524;8.390;2023-07-20T12:47:41;3.00;;;1.23;;
7338;SDS011;33747;49.524;8.390;2023-07-20T12:50:08;3.22;;;1.40;;
7338;SDS011;33747;49.524;8.390;2023-07-20T12:52:36;3.60;;;1.23;;
7338;SDS011;33747;49.524;8.390;2023-07-20T12:55:03;5.35;;;1.17;;
7338;SDS011;33747;49.524;8.390;2023-07-20T12:57:29;5.85;;;1.40;;
7338;SDS011;33747;49.524;8.390;2023-07-20T12:59:55;3.13;;;1.00;;
7338;SDS011;33747;49.524;8.390;2023-07-20T13:02:20;1.25;;;1.15;;
7338;SDS011;33747;49.524;8.390;2023-07-20T13:04:45;2.72;;;1.30;;
7338;SDS011;33747;49.524;8.390;2023-07-20T13:07:11;1.33;;;1.10;;
7338;SDS011;33747;49.524;8.390;2023-07-20T13:09:37;5.90;;;1.35;;
7338;SDS011;33747;49.524;8.390;2023-07-20T13:12:02;5.45;;;1.60;;
7338;SDS011;33747;49.524;8.390;2023-07-20T13:14:27;2.15;;;0.80;;
7338;SDS011;33747;49.524;8.390;2023-07-20T13:16:54;5.38;;;1.20;;
7338;SDS011;33747;49.524;8.390;2023-07-20T13:19:20;1.67;;;1.00;;
7338;SDS011;33747;49.524;8.390;2023-07-20T13:21:46;1.45;;;0.95;;
7338;SDS011;33747;49.524;8.390;2023-07-20T13:24:11;2.25;;;1.20;;
7338;SDS011;33747;49.524;8.390;2023-07-20T13:26:36;3.95;;;1.30;;
7338;SDS011;33747;49.524;8.390;2023-07-20T13:29:02;5.60;;;1.52;;
7338;SDS011;33747;49.524;8.390;2023-07-20T13:31:27;1.60;;;1.20;;
7338;SDS011;33747;49.524;8.390;2023-07-20T13:33:53;6.10;;;1.35;;
7338;SDS011;33747;49.524;8.390;2023-07-20T13:36:18;3.03;;;1.00;;
7338;SDS011;33747;49.524;8.390;2023-07-20T13:38:44;5.47;;;1.30;;
7338;SDS011;33747;49.524;8.390;2023-07-20T13:41:09;2.42;;;1.52;;
7338;SDS011;33747;49.524;8.390;2023-07-20T13:43:34;2.78;;;1.23;;
7338;SDS011;33747;49.524;8.390;2023-07-20T13:46:00;3.78;;;1.23;;
7338;SDS011;33747;49.524;8.390;2023-07-20T13:48:25;3.17;;;1.60;;
7338;SDS011;33747;49.524;8.390;2023-07-20T13:50:52;6.40;;;1.30;;
7338;SDS011;33747;49.524;8.390;2023-07-20T13:53:18;2.40;;;1.45;;
7338;SDS011;33747;49.524;8.390;2023-07-20T13:55:43;1.80;;;1.08;;
7338;SDS011;33747;49.524;8.390;2023-07-20T13:58:09;2.03;;;1.10;;
7338;SDS011;33747;49.524;8.390;2023-07-20T14:00:37;1.83;;;1.00;;
7338;SDS011;33747;49.524;8.390;2023-07-20T14:03:02;2.92;;;1.38;;
7338;SDS011;33747;49.524;8.390;2023-07-20T14:05:28;1.35;;;1.00;;
7338;SDS011;33747;49.524;8.390;2023-07-20T14:07:53;2.63;;;1.30;;
7338;SDS011;33747;49.524;8.390;2023-07-20T14:10:19;3.45;;;1.10;;
7338;SDS011;33747;49.524;8.390;2023-07-20T14:12:45;2.45;;;1.40;;
7338;SDS011;33747;49.524;8.390;2023-07-20T14:15:10;3.88;;;0.90;;
7338;SDS011;33747;49.524;8.390;2023-07-20T14:17:36;1.13;;;0.85;;
7338;SDS011;33747;49.524;8.390;2023-07-20T14:20:01;1.77;;;1.02;;
7338;SDS011;33747;49.524;8.390;2023-07-20T14:22:30;1.80;;;1.10;;
7338;SDS011;33747;49.524;8.390;2023-07-20T14:24:55;8.52;;;1.17;;
7338;SDS011;33747;49.524;8.390;2023-07-20T14:27:21;3.28;;;1.10;;
7338;SDS011;33747;49.524;8.390;2023-07-20T14:29:46;8.30;;;1.10;;
7338;SDS011;33747;49.524;8.390;2023-07-20T14:32:12;2.25;;;1.10;;
7338;SDS011;33747;49.524;8.390;2023-07-20T14:34:37;1.80;;;1.23;;
7338;SDS011;33747;49.524;8.390;2023-07-20T14:37:02;1.08;;;0.70;;
7338;SDS011;33747;49.524;8.390;2023-07-20T14:39:29;2.13;;;1.17;;
7338;SDS011;33747;49.524;8.390;2023-07-20T14:41:54;4.55;;;1.40;;
7338;SDS011;33747;49.524;8.390;2023-07-20T14:44:20;5.88;;;1.67;;
7338;SDS011;33747;49.524;8.390;2023-07-20T14:46:45;2.10;;;1.05;;
7338;SDS011;33747;49.524;8.390;2023-07-20T14:49:11;6.07;;;1.30;;
7338;SDS011;33747;49.524;8.390;2023-07-20T14:51:36;1.88;;;1.35;;
7338;SDS011;33747;49.524;8.390;2023-07-20T14:54:08;7.57;;;1.30;;
7338;SDS011;33747;49.524;8.390;2023-07-20T14:56:33;5.55;;;1.30;;
7338;SDS011;33747;49.524;8.390;2023-07-20T14:58:59;3.92;;;1.30;;
7338;SDS011;33747;49.524;8.390;2023-07-20T15:01:25;3.72;;;1.10;;
7338;SDS011;33747;49.524;8.390;2023-07-20T15:03:51;4.70;;;1.52;;
7338;SDS011;33747;49.524;8.390;2023-07-20T15:06:18;3.60;;;1.15;;
7338;SDS011;33747;49.524;8.390;2023-07-20T15:08:44;1.67;;;1.20;;
7338;SDS011;33747;49.524;8.390;2023-07-20T15:11:09;1.67;;;1.23;;
7338;SDS011;33747;49.524;8.390;2023-07-20T15:13:34;2.03;;;1.20;;